createdAt,value
2019-03-17T00:00:10.867Z,11.49
2019-03-17T00:01:12.268Z,11.63
2019-03-17T00:02:10.848Z,11.56
2019-03-17T00:03:10.835Z,11.53
2019-03-17T00:04:10.826Z,11.49
2019-03-17T00:05:10.813Z,11.46
2019-03-17T00:06:10.816Z,11.53
2019-03-17T00:07:10.798Z,11.48
2019-03-17T00:08:10.783Z,11.44
2019-03-17T00:09:10.773Z,11.46
2019-03-17T00:10:10.761Z,11.46
2019-03-17T00:11:10.762Z,11.54
2019-03-17T00:12:10.741Z,11.44
2019-03-17T00:13:10.729Z,11.51
2019-03-17T00:14:10.723Z,11.62
2019-03-17T00:15:10.712Z,11.57
2019-03-17T00:16:10.713Z,11.59
2019-03-17T00:17:10.687Z,11.62
2019-03-17T00:18:10.677Z,11.63
2019-03-17T00:19:10.668Z,11.60
2019-03-17T00:20:10.661Z,11.56
2019-03-17T00:21:10.659Z,11.57
2019-03-17T00:22:10.639Z,11.57
2019-03-17T00:23:10.624Z,11.56
2019-03-17T00:24:10.616Z,11.44
2019-03-17T00:25:10.605Z,11.42
2019-03-17T00:26:10.609Z,11.46
2019-03-17T00:27:10.595Z,11.48
2019-03-17T00:28:10.572Z,11.46
2019-03-17T00:29:10.562Z,11.39
2019-03-17T00:30:10.551Z,11.49
2019-03-17T00:31:22.906Z,11.38
2019-03-17T00:32:11.530Z,11.38
2019-03-17T00:33:10.529Z,11.36
2019-03-17T00:34:10.509Z,11.33
2019-03-17T00:35:10.506Z,11.42
2019-03-17T00:36:10.502Z,11.41
2019-03-17T00:37:10.482Z,11.30
2019-03-17T00:38:10.466Z,11.38
2019-03-17T00:39:10.461Z,11.31
2019-03-17T00:40:10.458Z,11.38
2019-03-17T00:41:10.446Z,11.36
2019-03-17T00:42:10.426Z,11.35
2019-03-17T00:43:10.414Z,11.35
2019-03-17T00:44:10.406Z,11.28
2019-03-17T00:45:11.749Z,11.24
2019-03-17T00:46:10.411Z,11.26
2019-03-17T00:47:10.884Z,11.26
2019-03-17T00:48:10.360Z,11.21
2019-03-17T00:49:10.352Z,11.28
2019-03-17T00:50:10.339Z,11.28
2019-03-17T00:51:10.329Z,11.19
2019-03-17T00:52:10.331Z,11.27
2019-03-17T00:53:10.308Z,11.26
2019-03-17T00:54:10.303Z,11.24
2019-03-17T00:55:10.317Z,11.23
2019-03-17T00:56:10.276Z,11.16
2019-03-17T00:57:10.280Z,11.13
2019-03-17T00:58:10.256Z,11.20
2019-03-17T00:59:10.244Z,11.13
2019-03-17T01:00:10.237Z,11.23
2019-03-17T01:01:10.224Z,11.20
2019-03-17T01:02:10.286Z,11.13
2019-03-17T01:03:10.203Z,11.12
2019-03-17T01:04:10.193Z,11.03
2019-03-17T01:05:10.183Z,11.09
2019-03-17T01:06:10.172Z,11.16
2019-03-17T01:07:10.175Z,11.08
2019-03-17T01:08:10.156Z,11.11
2019-03-17T01:09:10.142Z,11.16
2019-03-17T01:10:10.209Z,11.11
2019-03-17T01:11:10.122Z,11.17
2019-03-17T01:12:10.121Z,11.08
2019-03-17T01:13:10.097Z,10.99
2019-03-17T01:14:10.092Z,11.06
2019-03-17T01:15:10.082Z,11.02
2019-03-17T01:16:10.065Z,11.06
2019-03-17T01:17:10.066Z,11.05
2019-03-17T01:18:10.044Z,11.08
2019-03-17T01:19:10.034Z,11.08
2019-03-17T01:20:10.040Z,11.11
2019-03-17T01:21:10.012Z,11.06
2019-03-17T01:22:10.014Z,11.05
2019-03-17T01:23:09.991Z,10.98
2019-03-17T01:24:10.486Z,10.94
2019-03-17T01:25:10.044Z,10.88
2019-03-17T01:26:09.959Z,10.88
2019-03-17T01:27:09.961Z,10.81
2019-03-17T01:28:09.959Z,10.86
2019-03-17T01:29:09.929Z,10.78
2019-03-17T01:30:09.918Z,10.76
2019-03-17T01:31:09.908Z,10.75
2019-03-17T01:32:09.909Z,10.73
2019-03-17T01:33:09.886Z,10.69
2019-03-17T01:34:09.876Z,10.66
2019-03-17T01:35:10.294Z,10.72
2019-03-17T01:36:09.857Z,10.57
2019-03-17T01:37:09.856Z,10.57
2019-03-17T01:38:09.836Z,10.51
2019-03-17T01:39:09.829Z,10.46
2019-03-17T01:40:09.816Z,10.43
2019-03-17T01:41:09.801Z,10.42
2019-03-17T01:42:09.802Z,10.39
2019-03-17T01:43:09.779Z,10.36
2019-03-17T01:44:09.771Z,10.32
2019-03-17T01:45:09.773Z,10.39
2019-03-17T01:46:09.748Z,10.28
2019-03-17T01:47:09.784Z,10.22
2019-03-17T01:48:09.727Z,10.25
2019-03-17T01:49:09.722Z,10.24
2019-03-17T01:50:09.708Z,10.22
2019-03-17T01:51:09.694Z,10.24
2019-03-17T01:52:09.686Z,10.22
2019-03-17T01:53:09.690Z,10.22
2019-03-17T01:54:09.664Z,10.09
2019-03-17T01:55:09.667Z,10.16
2019-03-17T01:56:09.642Z,10.06
2019-03-17T01:57:09.632Z,10.07
2019-03-17T01:58:09.626Z,9.95
2019-03-17T01:59:09.610Z,9.91
2019-03-17T02:00:09.598Z,9.96
2019-03-17T02:01:11.816Z,9.93
2019-03-17T02:02:09.584Z,9.95
2019-03-17T02:03:09.572Z,9.93
2019-03-17T02:04:09.557Z,9.85
2019-03-17T02:05:21.323Z,9.78
2019-03-17T02:06:10.534Z,9.77
2019-03-17T02:07:09.525Z,9.75
2019-03-17T02:08:09.523Z,9.85
2019-03-17T02:09:09.504Z,9.75
2019-03-17T02:10:09.501Z,9.68
2019-03-17T02:11:09.492Z,9.67
2019-03-17T02:12:09.473Z,9.65
2019-03-17T02:13:09.464Z,9.60
2019-03-17T02:14:09.451Z,9.63
2019-03-17T02:15:09.441Z,9.59
2019-03-17T02:16:09.431Z,9.65
2019-03-17T02:17:09.419Z,9.63
2019-03-17T02:18:09.411Z,9.60
2019-03-17T02:19:09.400Z,9.68
2019-03-17T02:20:09.438Z,9.62
2019-03-17T02:21:09.376Z,9.60
2019-03-17T02:22:09.367Z,9.56
2019-03-17T02:23:09.361Z,9.60
2019-03-17T02:24:09.352Z,9.56
2019-03-17T02:25:09.337Z,9.62
2019-03-17T02:26:09.324Z,9.56
2019-03-17T02:27:09.314Z,9.55
2019-03-17T02:28:09.318Z,9.49
2019-03-17T02:29:09.308Z,9.44
2019-03-17T02:30:09.299Z,9.49
2019-03-17T02:31:09.273Z,9.42
2019-03-17T02:32:09.263Z,9.44
2019-03-17T02:33:09.254Z,9.42
2019-03-17T02:34:11.785Z,9.45
2019-03-17T02:35:09.229Z,9.35
2019-03-17T02:36:09.223Z,9.34
2019-03-17T02:37:09.208Z,9.32
2019-03-17T02:38:09.211Z,9.37
2019-03-17T02:39:09.186Z,9.35
2019-03-17T02:40:09.178Z,9.35
2019-03-17T02:41:09.167Z,9.34
2019-03-17T02:42:09.156Z,9.30
2019-03-17T02:43:09.155Z,9.23
2019-03-17T02:44:09.138Z,9.27
2019-03-17T02:45:09.127Z,9.31
2019-03-17T02:46:09.120Z,9.24
2019-03-17T02:47:09.106Z,9.24
2019-03-17T02:48:09.115Z,9.22
2019-03-17T02:49:09.081Z,9.31
2019-03-17T02:50:09.075Z,9.27
2019-03-17T02:51:09.060Z,9.23
2019-03-17T02:52:09.081Z,9.34
2019-03-17T02:53:09.055Z,9.30
2019-03-17T02:54:09.121Z,9.17
2019-03-17T02:55:09.019Z,9.19
2019-03-17T02:56:09.007Z,9.22
2019-03-17T02:57:08.998Z,9.19
2019-03-17T02:58:08.999Z,9.20
2019-03-17T02:59:08.988Z,9.17
2019-03-17T03:00:08.966Z,9.17
2019-03-17T03:01:08.958Z,9.24
2019-03-17T03:02:08.947Z,9.16
2019-03-17T03:03:08.933Z,9.20
2019-03-17T03:04:08.935Z,9.15
2019-03-17T03:05:08.929Z,9.20
2019-03-17T03:06:08.932Z,9.20
2019-03-17T03:07:08.899Z,9.23
2019-03-17T03:08:08.895Z,9.24
2019-03-17T03:09:08.885Z,9.17
2019-03-17T03:10:08.868Z,9.17
2019-03-17T03:11:08.870Z,9.16
2019-03-17T03:12:08.840Z,9.16
2019-03-17T03:13:08.829Z,9.04
2019-03-17T03:14:08.830Z,9.16
2019-03-17T03:15:08.808Z,9.08
2019-03-17T03:16:08.797Z,9.03
2019-03-17T03:17:08.798Z,9.12
2019-03-17T03:18:08.777Z,9.03
2019-03-17T03:19:08.776Z,9.04
2019-03-17T03:20:08.754Z,9.03
2019-03-17T03:21:08.746Z,9.17
2019-03-17T03:22:08.754Z,9.17
2019-03-17T03:23:08.746Z,9.17
2019-03-17T03:24:08.727Z,9.22
2019-03-17T03:25:08.705Z,9.20
2019-03-17T03:26:08.693Z,9.19
2019-03-17T03:27:08.683Z,9.15
2019-03-17T03:28:08.671Z,9.19
2019-03-17T03:29:08.676Z,9.10
2019-03-17T03:30:08.712Z,9.17
2019-03-17T03:31:08.641Z,9.17
2019-03-17T03:32:08.634Z,9.17
2019-03-17T03:33:08.625Z,9.10
2019-03-17T03:34:08.622Z,9.10
2019-03-17T03:35:08.600Z,9.22
2019-03-17T03:36:11.300Z,9.24
2019-03-17T03:37:08.575Z,9.24
2019-03-17T03:38:08.576Z,9.20
2019-03-17T03:39:08.574Z,9.10
2019-03-17T03:40:08.545Z,9.20
2019-03-17T03:41:08.540Z,9.26
2019-03-17T03:42:08.542Z,9.23
2019-03-17T03:43:08.521Z,9.22
2019-03-17T03:44:08.515Z,9.24
2019-03-17T03:45:08.493Z,9.30
2019-03-17T03:46:08.496Z,9.35
2019-03-17T03:47:08.469Z,9.42
2019-03-17T03:48:08.460Z,9.32
2019-03-17T03:49:08.462Z,9.45
2019-03-17T03:50:08.439Z,9.48
2019-03-17T03:51:08.431Z,9.48
2019-03-17T03:52:08.417Z,9.44
2019-03-17T03:53:08.407Z,9.45
2019-03-17T03:54:08.412Z,9.56
2019-03-17T03:55:08.384Z,9.60
2019-03-17T03:56:08.377Z,9.63
2019-03-17T03:57:08.371Z,9.67
2019-03-17T03:58:08.356Z,9.77
2019-03-17T03:59:08.354Z,9.75
2019-03-17T04:00:08.336Z,9.73
2019-03-17T04:01:08.322Z,9.70
2019-03-17T04:02:08.312Z,9.73
2019-03-17T04:03:08.303Z,9.70
2019-03-17T04:04:08.306Z,9.65
2019-03-17T04:05:08.286Z,9.62
2019-03-17T04:06:08.344Z,9.68
2019-03-17T04:07:08.259Z,9.62
2019-03-17T04:08:08.249Z,9.70
2019-03-17T04:09:08.262Z,9.65
2019-03-17T04:10:08.246Z,9.83
2019-03-17T04:11:08.221Z,9.85
2019-03-17T04:12:08.209Z,9.93
2019-03-17T04:13:08.196Z,10.02
2019-03-17T04:14:08.482Z,10.16
2019-03-17T04:15:08.245Z,10.11
2019-03-17T04:16:08.167Z,10.11
2019-03-17T04:17:08.161Z,10.02
2019-03-17T04:18:08.143Z,10.02
2019-03-17T04:19:08.137Z,10.01
2019-03-17T04:20:08.135Z,9.93
2019-03-17T04:21:08.115Z,9.91
2019-03-17T04:22:08.101Z,9.95
2019-03-17T04:23:08.094Z,9.95
2019-03-17T04:24:08.083Z,9.92
2019-03-17T04:25:08.254Z,9.95
2019-03-17T04:26:08.059Z,9.95
2019-03-17T04:27:08.053Z,9.96
2019-03-17T04:28:08.039Z,9.96
2019-03-17T04:29:08.031Z,9.93
2019-03-17T04:30:08.029Z,9.92
2019-03-17T04:31:08.005Z,9.89
2019-03-17T04:32:08.011Z,9.95
2019-03-17T04:33:07.990Z,9.96
2019-03-17T04:34:07.977Z,9.96
2019-03-17T04:35:07.986Z,9.96
2019-03-17T04:36:07.952Z,9.96
2019-03-17T04:37:07.944Z,9.93
2019-03-17T04:38:07.936Z,9.98
2019-03-17T04:39:07.924Z,9.92
2019-03-17T04:40:07.924Z,9.92
2019-03-17T04:41:07.899Z,9.96
2019-03-17T04:42:07.889Z,9.96
2019-03-17T04:43:07.880Z,9.93
2019-03-17T04:44:20.039Z,9.92
2019-03-17T04:45:08.861Z,9.89
2019-03-17T04:46:07.847Z,9.91
2019-03-17T04:47:07.837Z,9.92
2019-03-17T04:48:07.831Z,9.93
2019-03-17T04:49:07.815Z,9.77
2019-03-17T04:50:07.821Z,9.86
2019-03-17T04:51:07.798Z,9.77
2019-03-17T04:52:07.783Z,9.75
2019-03-17T04:53:07.773Z,9.65
2019-03-17T04:54:07.761Z,9.62
2019-03-17T04:55:07.771Z,9.58
2019-03-17T04:56:07.746Z,9.42
2019-03-17T04:57:07.730Z,9.41
2019-03-17T04:58:07.719Z,9.31
2019-03-17T04:59:07.709Z,9.37
2019-03-17T05:00:07.710Z,9.37
2019-03-17T05:01:07.688Z,9.26
2019-03-17T05:02:07.680Z,9.17
2019-03-17T05:03:07.671Z,9.16
2019-03-17T05:04:07.655Z,9.15
2019-03-17T05:05:07.666Z,9.12
2019-03-17T05:06:07.636Z,9.10
2019-03-17T05:07:07.625Z,9.06
2019-03-17T05:08:07.615Z,9.03
2019-03-17T05:09:07.608Z,8.97
2019-03-17T05:10:07.606Z,9.03
2019-03-17T05:11:07.610Z,8.97
2019-03-17T05:12:07.575Z,9.00
2019-03-17T05:13:07.563Z,8.98
2019-03-17T05:14:07.550Z,8.85
2019-03-17T05:15:07.581Z,8.93
2019-03-17T05:16:07.529Z,8.88
2019-03-17T05:17:07.527Z,8.83
2019-03-17T05:18:07.512Z,8.83
2019-03-17T05:19:07.503Z,8.85
2019-03-17T05:20:07.488Z,8.68
2019-03-17T05:21:07.487Z,8.79
2019-03-17T05:22:07.466Z,8.76
2019-03-17T05:23:07.459Z,8.83
2019-03-17T05:24:07.445Z,8.82
2019-03-17T05:25:07.436Z,8.68
2019-03-17T05:26:07.437Z,8.73
2019-03-17T05:27:07.412Z,8.71
2019-03-17T05:28:07.405Z,8.75
2019-03-17T05:29:07.394Z,8.71
2019-03-17T05:30:07.381Z,8.68
2019-03-17T05:31:07.383Z,8.58
2019-03-17T05:32:07.361Z,8.60
2019-03-17T05:33:07.350Z,8.52
2019-03-17T05:34:07.341Z,8.68
2019-03-17T05:35:07.329Z,8.57
2019-03-17T05:36:07.333Z,8.60
2019-03-17T05:37:07.322Z,8.60
2019-03-17T05:38:07.298Z,8.47
2019-03-17T05:39:07.294Z,8.52
2019-03-17T05:40:07.279Z,8.50
2019-03-17T05:41:07.284Z,8.50
2019-03-17T05:42:07.257Z,8.57
2019-03-17T05:43:07.242Z,8.47
2019-03-17T05:44:07.232Z,8.61
2019-03-17T05:45:07.225Z,8.61
2019-03-17T05:46:07.221Z,8.55
2019-03-17T05:47:07.200Z,8.57
2019-03-17T05:48:07.192Z,8.60
2019-03-17T05:49:07.183Z,8.58
2019-03-17T05:50:07.166Z,8.67
2019-03-17T05:51:07.171Z,8.75
2019-03-17T05:52:07.146Z,8.76
2019-03-17T05:53:07.135Z,8.75
2019-03-17T05:54:07.124Z,8.73
2019-03-17T05:55:07.115Z,8.73
2019-03-17T05:56:07.114Z,8.71
2019-03-17T05:57:07.094Z,8.71
2019-03-17T05:58:07.089Z,8.75
2019-03-17T05:59:07.071Z,8.73
2019-03-17T06:00:07.063Z,8.71
2019-03-17T06:01:07.062Z,8.70
2019-03-17T06:02:07.041Z,8.79
2019-03-17T06:03:07.028Z,8.78
2019-03-17T06:04:07.018Z,8.82
2019-03-17T06:05:07.022Z,8.76
2019-03-17T06:06:07.010Z,8.70
2019-03-17T06:07:18.023Z,8.78
2019-03-17T06:08:08.039Z,8.80
2019-03-17T06:09:06.963Z,8.79
2019-03-17T06:10:06.953Z,8.75
2019-03-17T06:11:06.957Z,8.80
2019-03-17T06:12:06.932Z,8.73
2019-03-17T06:13:06.922Z,8.89
2019-03-17T06:14:06.912Z,8.91
2019-03-17T06:15:06.902Z,8.94
2019-03-17T06:16:06.900Z,8.97
2019-03-17T06:17:06.880Z,8.96
2019-03-17T06:18:06.869Z,9.03
2019-03-17T06:19:06.857Z,9.06
2019-03-17T06:20:06.846Z,8.97
2019-03-17T06:21:06.849Z,9.00
2019-03-17T06:22:06.825Z,9.10
2019-03-17T06:23:06.814Z,9.00
2019-03-17T06:24:06.803Z,9.12
2019-03-17T06:25:06.795Z,9.15
2019-03-17T06:26:06.812Z,9.12
2019-03-17T06:27:06.771Z,9.04
2019-03-17T06:28:06.760Z,9.10
2019-03-17T06:29:06.761Z,9.19
2019-03-17T06:30:06.739Z,9.17
2019-03-17T06:31:06.732Z,9.26
2019-03-17T06:32:17.477Z,9.22
2019-03-17T06:33:06.708Z,9.27
2019-03-17T06:34:06.697Z,9.26
2019-03-17T06:35:06.686Z,9.30
2019-03-17T06:36:06.682Z,9.27
2019-03-17T06:37:06.696Z,9.37
2019-03-17T06:38:06.655Z,9.38
2019-03-17T06:39:06.663Z,9.38
2019-03-17T06:40:06.632Z,9.41
2019-03-17T06:41:06.622Z,9.40
2019-03-17T06:42:06.628Z,9.45
2019-03-17T06:43:06.604Z,9.48
2019-03-17T06:44:06.597Z,9.44
2019-03-17T06:45:06.591Z,9.58
2019-03-17T06:46:06.570Z,9.53
2019-03-17T06:47:06.606Z,9.55
2019-03-17T06:48:06.561Z,9.53
2019-03-17T06:49:06.541Z,9.56
2019-03-17T06:50:06.526Z,9.56
2019-03-17T06:51:06.516Z,9.62
2019-03-17T06:52:06.520Z,9.68
2019-03-17T06:53:06.496Z,9.62
2019-03-17T06:54:06.484Z,9.65
2019-03-17T06:55:06.481Z,9.56
2019-03-17T06:56:06.464Z,9.70
2019-03-17T06:57:06.467Z,9.73
2019-03-17T06:58:06.444Z,9.73
2019-03-17T06:59:06.444Z,9.85
2019-03-17T07:00:06.421Z,9.86
2019-03-17T07:01:06.415Z,9.83
2019-03-17T07:02:06.414Z,9.81
2019-03-17T07:03:06.395Z,9.83
2019-03-17T07:04:06.396Z,9.91
2019-03-17T07:05:06.372Z,9.89
2019-03-17T07:06:06.366Z,9.95
2019-03-17T07:07:06.365Z,9.92
2019-03-17T07:08:06.347Z,9.95
2019-03-17T07:09:06.327Z,10.04
2019-03-17T07:10:06.316Z,10.04
2019-03-17T07:11:06.304Z,10.09
2019-03-17T07:12:06.311Z,10.07
2019-03-17T07:13:06.283Z,10.13
2019-03-17T07:14:06.273Z,10.17
2019-03-17T07:15:06.268Z,10.14
2019-03-17T07:16:06.259Z,10.22
2019-03-17T07:17:06.254Z,10.20
2019-03-17T07:18:06.234Z,10.32
2019-03-17T07:19:06.221Z,10.28
2019-03-17T07:20:06.210Z,10.36
2019-03-17T07:21:06.201Z,10.47
2019-03-17T07:22:06.204Z,10.47
2019-03-17T07:23:06.178Z,10.65
2019-03-17T07:24:06.170Z,10.63
2019-03-17T07:25:06.156Z,10.62
2019-03-17T07:26:06.163Z,10.68
2019-03-17T07:27:06.149Z,10.66
2019-03-17T07:28:06.128Z,10.72
2019-03-17T07:29:06.117Z,10.63
2019-03-17T07:30:06.117Z,10.63
2019-03-17T07:31:06.098Z,10.63
2019-03-17T07:32:06.118Z,10.62
2019-03-17T07:33:06.074Z,10.68
2019-03-17T07:34:06.062Z,10.63
2019-03-17T07:35:06.052Z,10.60
2019-03-17T07:36:06.044Z,10.54
2019-03-17T07:37:06.041Z,10.58
2019-03-17T07:38:06.020Z,10.55
2019-03-17T07:39:11.776Z,10.55
2019-03-17T07:40:06.999Z,10.63
2019-03-17T07:41:05.988Z,10.62
2019-03-17T07:42:06.011Z,10.65
2019-03-17T07:43:05.973Z,10.66
2019-03-17T07:44:05.958Z,10.73
2019-03-17T07:45:05.963Z,10.88
2019-03-17T07:46:05.937Z,11.06
2019-03-17T07:47:05.928Z,11.26
2019-03-17T07:48:05.921Z,11.31
2019-03-17T07:49:05.903Z,11.44
2019-03-17T07:50:05.896Z,11.57
2019-03-17T07:51:05.895Z,11.64
2019-03-17T07:52:05.872Z,11.85
2019-03-17T07:53:05.870Z,11.88
2019-03-17T07:54:05.858Z,11.98
2019-03-17T07:55:05.846Z,12.23
2019-03-17T07:56:05.829Z,12.33
2019-03-17T07:57:05.819Z,12.48
2019-03-17T07:58:05.813Z,12.59
2019-03-17T07:59:05.808Z,12.73
2019-03-17T08:00:05.788Z,12.89
2019-03-17T08:01:05.818Z,12.98
2019-03-17T08:02:05.768Z,13.10
2019-03-17T08:03:05.764Z,13.16
2019-03-17T08:04:05.746Z,13.17
2019-03-17T08:05:05.734Z,13.21
2019-03-17T08:06:05.754Z,13.28
2019-03-17T08:07:05.731Z,13.43
2019-03-17T08:08:09.795Z,13.47
2019-03-17T08:09:05.700Z,13.55
2019-03-17T08:10:05.686Z,13.62
2019-03-17T08:11:05.672Z,13.68
2019-03-17T08:12:05.662Z,13.73
2019-03-17T08:13:05.654Z,13.71
2019-03-17T08:14:05.660Z,13.72
2019-03-17T08:15:05.629Z,13.71
2019-03-17T08:16:05.621Z,13.75
2019-03-17T08:17:05.608Z,13.81
2019-03-17T08:18:05.606Z,13.90
2019-03-17T08:19:05.588Z,13.93
2019-03-17T08:20:05.574Z,14.02
2019-03-17T08:21:05.565Z,14.01
2019-03-17T08:22:05.563Z,14.08
2019-03-17T08:23:05.556Z,14.13
2019-03-17T08:24:05.547Z,14.08
2019-03-17T08:25:05.540Z,14.17
2019-03-17T08:26:05.512Z,14.24
2019-03-17T08:27:05.503Z,14.30
2019-03-17T08:28:05.498Z,14.29
2019-03-17T08:29:05.480Z,14.35
2019-03-17T08:30:05.469Z,14.48
2019-03-17T08:31:05.460Z,14.41
2019-03-17T08:32:05.450Z,14.53
2019-03-17T08:33:05.445Z,14.59
2019-03-17T08:34:05.442Z,14.52
2019-03-17T08:35:05.416Z,14.53
2019-03-17T08:36:05.405Z,14.69
2019-03-17T08:37:05.397Z,14.61
2019-03-17T08:38:05.387Z,14.66
2019-03-17T08:39:05.373Z,14.67
2019-03-17T08:40:05.381Z,14.71
2019-03-17T08:41:05.352Z,14.85
2019-03-17T08:42:05.354Z,14.82
2019-03-17T08:43:05.335Z,14.82
2019-03-17T08:44:05.320Z,14.80
2019-03-17T08:45:05.311Z,14.72
2019-03-17T08:46:05.299Z,14.79
2019-03-17T08:47:05.288Z,14.87
2019-03-17T08:48:05.285Z,14.85
2019-03-17T08:49:05.268Z,14.97
2019-03-17T08:50:05.257Z,14.94
2019-03-17T08:51:05.247Z,15.00
2019-03-17T08:52:05.287Z,15.11
2019-03-17T08:53:05.286Z,15.07
2019-03-17T08:54:05.219Z,15.12
2019-03-17T08:55:05.205Z,15.07
2019-03-17T08:56:05.193Z,15.19
2019-03-17T08:57:05.182Z,15.20
2019-03-17T08:58:05.182Z,15.15
2019-03-17T08:59:05.164Z,15.20
2019-03-17T09:00:05.151Z,15.23
2019-03-17T09:01:05.141Z,15.30
2019-03-17T09:02:05.131Z,15.37
2019-03-17T09:03:05.125Z,15.38
2019-03-17T09:04:05.108Z,15.46
2019-03-17T09:05:05.098Z,15.48
2019-03-17T09:06:05.091Z,15.53
2019-03-17T09:07:05.076Z,15.51
2019-03-17T09:08:05.082Z,15.49
2019-03-17T09:09:05.057Z,15.51
2019-03-17T09:10:05.047Z,15.53
2019-03-17T09:11:05.042Z,15.58
2019-03-17T09:12:05.030Z,15.66
2019-03-17T09:13:05.036Z,15.68
2019-03-17T09:14:05.002Z,15.56
2019-03-17T09:15:05.089Z,15.66
2019-03-17T09:16:04.983Z,15.71
2019-03-17T09:17:14.339Z,15.73
2019-03-17T09:18:05.973Z,15.80
2019-03-17T09:19:04.976Z,15.76
2019-03-17T09:20:04.945Z,15.74
2019-03-17T09:21:04.928Z,15.77
2019-03-17T09:22:04.917Z,15.73
2019-03-17T09:23:04.937Z,15.78
2019-03-17T09:24:16.528Z,15.85
2019-03-17T09:25:05.884Z,15.85
2019-03-17T09:26:04.913Z,15.96
2019-03-17T09:27:04.873Z,15.96
2019-03-17T09:28:04.854Z,15.88
2019-03-17T09:29:04.854Z,15.93
2019-03-17T09:30:04.836Z,15.95
2019-03-17T09:31:07.479Z,15.96
2019-03-17T09:32:04.817Z,16.08
2019-03-17T09:33:04.805Z,16.11
2019-03-17T09:34:04.804Z,16.10
2019-03-17T09:35:04.778Z,16.13
2019-03-17T09:36:04.781Z,16.22
2019-03-17T09:37:04.757Z,16.17
2019-03-17T09:38:04.749Z,16.22
2019-03-17T09:39:04.805Z,16.25
2019-03-17T09:40:04.726Z,16.17
2019-03-17T09:41:04.715Z,16.23
2019-03-17T09:42:04.709Z,16.17
2019-03-17T09:43:04.694Z,16.17
2019-03-17T09:44:04.695Z,16.32
2019-03-17T09:45:04.679Z,16.40
2019-03-17T09:46:04.664Z,16.42
2019-03-17T09:47:04.652Z,16.42
2019-03-17T09:48:04.641Z,16.45
2019-03-17T09:49:04.644Z,16.47
2019-03-17T09:50:04.644Z,16.45
2019-03-17T09:51:04.619Z,16.51
2019-03-17T09:52:04.598Z,16.50
2019-03-17T09:53:04.634Z,16.51
2019-03-17T09:54:04.588Z,16.60
2019-03-17T09:55:04.566Z,16.51
2019-03-17T09:56:04.563Z,16.48
2019-03-17T09:57:04.547Z,16.52
2019-03-17T09:58:04.554Z,16.55
2019-03-17T09:59:04.543Z,16.67
2019-03-17T10:00:04.517Z,16.60
2019-03-17T10:01:04.503Z,16.70
2019-03-17T10:02:04.492Z,16.72
2019-03-17T10:03:04.482Z,16.90
2019-03-17T10:04:04.491Z,16.95
2019-03-17T10:05:04.462Z,16.88
2019-03-17T10:06:04.470Z,16.96
2019-03-17T10:07:04.440Z,16.90
2019-03-17T10:08:04.433Z,16.84
2019-03-17T10:09:04.440Z,16.85
2019-03-17T10:10:04.410Z,16.95
2019-03-17T10:11:04.401Z,16.91
2019-03-17T10:12:04.388Z,16.95
2019-03-17T10:13:04.380Z,16.95
2019-03-17T10:14:04.379Z,16.99
2019-03-17T10:15:04.357Z,17.09
2019-03-17T10:16:04.347Z,17.03
2019-03-17T10:17:04.337Z,17.10
2019-03-17T10:18:04.324Z,17.18
2019-03-17T10:19:04.349Z,17.18
2019-03-17T10:20:04.305Z,17.18
2019-03-17T10:21:04.291Z,17.14
2019-03-17T10:22:04.281Z,17.21
2019-03-17T10:23:04.278Z,17.28
2019-03-17T10:24:04.279Z,17.40
2019-03-17T10:25:04.265Z,17.43
2019-03-17T10:26:04.240Z,17.39
2019-03-17T10:27:04.233Z,17.43
2019-03-17T10:28:04.224Z,17.40
2019-03-17T10:29:04.249Z,17.45
2019-03-17T10:30:04.197Z,17.47
2019-03-17T10:31:04.198Z,17.40
2019-03-17T10:32:04.177Z,17.53
2019-03-17T10:33:04.164Z,17.53
2019-03-17T10:34:04.152Z,17.55
2019-03-17T10:35:04.155Z,17.62
2019-03-17T10:36:04.132Z,17.70
2019-03-17T10:37:04.119Z,17.74
2019-03-17T10:38:04.127Z,17.81
2019-03-17T10:39:12.408Z,17.79
2019-03-17T10:40:05.114Z,17.86
2019-03-17T10:41:04.092Z,17.98
2019-03-17T10:42:04.085Z,17.96
2019-03-17T10:43:04.056Z,18.02
2019-03-17T10:44:04.051Z,18.17
2019-03-17T10:45:04.046Z,18.26
2019-03-17T10:46:04.031Z,18.29
2019-03-17T10:47:04.019Z,18.42
2019-03-17T10:48:04.007Z,18.53
2019-03-17T10:49:04.013Z,18.64
2019-03-17T10:50:03.996Z,18.57
2019-03-17T10:51:03.971Z,18.65
2019-03-17T10:52:03.961Z,18.66
2019-03-17T10:53:03.953Z,18.71
2019-03-17T10:54:03.941Z,18.62
2019-03-17T10:55:04.007Z,18.65
2019-03-17T10:56:03.920Z,18.87
2019-03-17T10:57:03.909Z,19.02
2019-03-17T10:58:03.901Z,19.09
2019-03-17T10:59:03.887Z,19.20
2019-03-17T11:00:03.889Z,19.47
2019-03-17T11:01:03.867Z,19.65
2019-03-17T11:02:03.855Z,19.79
2019-03-17T11:03:03.844Z,19.70
2019-03-17T11:04:03.835Z,19.45
2019-03-17T11:05:03.856Z,19.43
2019-03-17T11:06:03.813Z,19.24
2019-03-17T11:07:03.808Z,19.07
2019-03-17T11:08:03.793Z,19.06
2019-03-17T11:09:03.781Z,19.12
2019-03-17T11:10:03.786Z,19.23
2019-03-17T11:11:03.759Z,19.27
2019-03-17T11:12:03.749Z,19.32
2019-03-17T11:13:03.739Z,19.25
2019-03-17T11:14:03.733Z,19.25
2019-03-17T11:15:03.757Z,19.35
2019-03-17T11:16:03.706Z,19.49
2019-03-17T11:17:03.717Z,19.70
2019-03-17T11:18:03.690Z,19.60
2019-03-17T11:19:03.707Z,19.80
2019-03-17T11:20:03.725Z,19.79
2019-03-17T11:21:03.654Z,19.90
2019-03-17T11:22:03.644Z,20.02
2019-03-17T11:23:03.635Z,20.15
2019-03-17T11:24:03.627Z,20.15
2019-03-17T11:25:03.623Z,20.20
2019-03-17T11:26:03.604Z,20.15
2019-03-17T11:27:03.593Z,19.98
2019-03-17T11:28:03.598Z,19.97
2019-03-17T11:29:03.576Z,20.15
2019-03-17T11:30:03.581Z,20.13
2019-03-17T11:31:03.553Z,20.13
2019-03-17T11:32:06.345Z,20.01
2019-03-17T11:33:03.530Z,19.89
2019-03-17T11:34:03.529Z,19.75
2019-03-17T11:35:03.535Z,19.79
2019-03-17T11:36:03.499Z,19.79
2019-03-17T11:37:03.503Z,19.60
2019-03-17T11:38:03.478Z,19.78
2019-03-17T11:39:03.473Z,19.75
2019-03-17T11:40:03.461Z,19.71
2019-03-17T11:41:03.457Z,19.76
2019-03-17T11:42:03.438Z,19.86
2019-03-17T11:43:03.518Z,19.92
2019-03-17T11:44:03.418Z,19.86
2019-03-17T11:45:03.421Z,19.86
2019-03-17T11:46:03.406Z,20.00
2019-03-17T11:47:03.387Z,20.00
2019-03-17T11:48:03.374Z,19.82
2019-03-17T11:49:03.368Z,20.00
2019-03-17T11:50:03.359Z,20.12
2019-03-17T11:51:03.356Z,20.40
2019-03-17T11:52:03.336Z,20.64
2019-03-17T11:53:03.323Z,20.71
2019-03-17T11:54:03.314Z,20.78
2019-03-17T11:55:03.316Z,20.81
2019-03-17T11:56:03.297Z,20.85
2019-03-17T11:57:03.281Z,20.98
2019-03-17T11:58:03.268Z,20.66
2019-03-17T11:59:03.261Z,20.72
2019-03-17T12:00:03.252Z,20.82
2019-03-17T12:01:03.248Z,20.72
2019-03-17T12:02:03.227Z,20.73
2019-03-17T12:03:03.215Z,20.93
2019-03-17T12:04:03.209Z,20.83
2019-03-17T12:05:03.194Z,20.76
2019-03-17T12:06:03.193Z,20.93
2019-03-17T12:07:03.176Z,20.85
2019-03-17T12:08:03.171Z,20.64
2019-03-17T12:09:04.472Z,20.85
2019-03-17T12:10:03.140Z,20.78
2019-03-17T12:11:03.145Z,20.91
2019-03-17T12:12:03.124Z,21.30
2019-03-17T12:13:03.110Z,21.30
2019-03-17T12:14:03.142Z,20.96
2019-03-17T12:15:03.104Z,20.78
2019-03-17T12:16:03.090Z,20.93
2019-03-17T12:17:03.067Z,21.19
2019-03-17T12:18:03.059Z,20.79
2019-03-17T12:19:03.049Z,20.51
2019-03-17T12:20:03.036Z,20.68
2019-03-17T12:21:03.043Z,20.61
2019-03-17T12:22:08.871Z,21.40
2019-03-17T12:23:04.004Z,20.50
2019-03-17T12:24:02.994Z,20.10
2019-03-17T12:25:02.986Z,20.01
2019-03-17T12:26:03.030Z,20.13
2019-03-17T12:27:02.971Z,23.22
2019-03-17T12:28:02.954Z,23.38
2019-03-17T12:29:02.940Z,23.12
2019-03-17T12:30:02.931Z,23.57
2019-03-17T12:31:02.933Z,25.08
2019-03-17T12:32:02.910Z,23.38
2019-03-17T12:33:02.906Z,23.69
2019-03-17T12:34:02.890Z,23.77
2019-03-17T12:35:02.878Z,24.29
2019-03-17T12:36:02.905Z,23.59
2019-03-17T12:37:02.875Z,22.72
2019-03-17T12:38:02.846Z,23.81
2019-03-17T12:39:02.837Z,22.78
2019-03-17T12:40:03.443Z,21.79
2019-03-17T12:41:02.815Z,21.27
2019-03-17T12:42:02.816Z,20.82
2019-03-17T12:43:02.793Z,20.64
2019-03-17T12:44:02.786Z,20.42
2019-03-17T12:45:02.777Z,19.98
2019-03-17T12:46:02.764Z,19.61
2019-03-17T12:47:02.806Z,19.28
2019-03-17T12:48:02.741Z,19.02
2019-03-17T12:49:02.740Z,18.76
2019-03-17T12:50:02.734Z,18.53
2019-03-17T12:51:02.713Z,18.34
2019-03-17T12:52:02.709Z,18.25
2019-03-17T12:53:02.689Z,18.28
2019-03-17T12:54:02.678Z,18.13
2019-03-17T12:55:02.670Z,18.14
2019-03-17T12:56:02.659Z,18.23
2019-03-17T12:57:02.659Z,18.29
2019-03-17T12:58:02.658Z,18.29
2019-03-17T12:59:02.626Z,18.25
2019-03-17T13:00:02.656Z,18.28
2019-03-17T13:01:02.604Z,18.25
2019-03-17T13:02:02.609Z,18.29